sensor_id;sensor_type;location;lat;lon;timestamp;pressure;altitude;pressure_sealevel;temperature;humidity
61554;BME280;47425;51.976;5.326;2024-03-02T00:00:36;99630.00;;;15.37;47.35
61554;BME280;47425;51.976;5.326;2024-03-02T00:03:03;99623.59;;;15.41;47.64
61554;BME280;47425;51.976;5.326;2024-03-02T00:05:30;99635.38;;;15.35;47.72
61554;BME280;47425;51.976;5.326;2024-03-02T00:07:59;99643.28;;;15.35;47.91
61554;BME280;47425;51.976;5.326;2024-03-02T00:10:26;99650.91;;;15.40;47.75
61554;BME280;47425;51.976;5.326;2024-03-02T00:12:56;99662.44;;;15.53;47.55
61554;BME280;47425;51.976;5.326;2024-03-02T00:15:30;99668.69;;;15.67;47.47
61554;BME280;47425;51.976;5.326;2024-03-02T00:18:00;99679.53;;;15.76;47.13
61554;BME280;47425;51.976;5.326;2024-03-02T00:20:27;99692.47;;;15.81;47.12
61554;BME280;47425;51.976;5.326;2024-03-02T00:22:55;99728.22;;;15.87;46.83
61554;BME280;47425;51.976;5.326;2024-03-02T00:25:26;99746.59;;;15.88;46.64
61554;BME280;47425;51.976;5.326;2024-03-02T00:27:52;99737.75;;;15.89;46.79
61554;BME280;47425;51.976;5.326;2024-03-02T00:30:29;99738.41;;;15.93;46.42
61554;BME280;47425;51.976;5.326;2024-03-02T00:33:02;99736.41;;;15.97;46.60
61554;BME280;47425;51.976;5.326;2024-03-02T00:35:33;99747.84;;;15.97;46.18
61554;BME280;47425;51.976;5.326;2024-03-02T00:38:03;99743.69;;;15.93;46.53
61554;BME280;47425;51.976;5.326;2024-03-02T00:40:31;99747.06;;;15.95;46.36
61554;BME280;47425;51.976;5.326;2024-03-02T00:42:58;99737.19;;;15.99;46.08
61554;BME280;47425;51.976;5.326;2024-03-02T00:45:25;99743.97;;;16.03;46.07
61554;BME280;47425;51.976;5.326;2024-03-02T00:47:52;99735.22;;;16.02;46.25
61554;BME280;47425;51.976;5.326;2024-03-02T00:50:19;99738.50;;;16.06;46.06
61554;BME280;47425;51.976;5.326;2024-03-02T00:52:46;99729.16;;;16.00;46.02
61554;BME280;47425;51.976;5.326;2024-03-02T00:55:13;99741.53;;;16.00;45.96
61554;BME280;47425;51.976;5.326;2024-03-02T00:57:41;99743.97;;;16.03;46.15
61554;BME280;47425;51.976;5.326;2024-03-02T01:00:10;99747.38;;;16.05;45.98
61554;BME280;47425;51.976;5.326;2024-03-02T01:02:41;99742.94;;;16.05;46.10
61554;BME280;47425;51.976;5.326;2024-03-02T01:05:09;99749.16;;;16.04;46.20
61554;BME280;47425;51.976;5.326;2024-03-02T01:07:37;99737.66;;;16.05;46.31
61554;BME280;47425;51.976;5.326;2024-03-02T01:10:04;99744.56;;;16.08;46.18
61554;BME280;47425;51.976;5.326;2024-03-02T01:12:32;99749.16;;;16.04;46.23
61554;BME280;47425;51.976;5.326;2024-03-02T01:15:00;99750.03;;;16.05;46.26
61554;BME280;47425;51.976;5.326;2024-03-02T01:17:26;99750.88;;;16.05;46.27
61554;BME280;47425;51.976;5.326;2024-03-02T01:19:53;99763.88;;;16.08;46.10
61554;BME280;47425;51.976;5.326;2024-03-02T01:22:19;99764.84;;;16.07;46.01
61554;BME280;47425;51.976;5.326;2024-03-02T01:24:51;99747.75;;;15.99;46.23
61554;BME280;47425;51.976;5.326;2024-03-02T01:27:17;99755.78;;;15.97;46.38
61554;BME280;47425;51.976;5.326;2024-03-02T01:29:45;99757.38;;;16.00;46.26
61554;BME280;47425;51.976;5.326;2024-03-02T01:32:13;99759.91;;;16.01;46.27
61554;BME280;47425;51.976;5.326;2024-03-02T01:34:40;99773.03;;;16.03;46.27
61554;BME280;47425;51.976;5.326;2024-03-02T01:37:07;99769.44;;;16.04;46.35
61554;BME280;47425;51.976;5.326;2024-03-02T01:39:33;99776.44;;;16.05;46.13
61554;BME280;47425;51.976;5.326;2024-03-02T01:41:59;99785.56;;;15.99;46.52
61554;BME280;47425;51.976;5.326;2024-03-02T01:44:26;99786.44;;;16.00;46.51
61554;BME280;47425;51.976;5.326;2024-03-02T01:46:52;99774.84;;;16.02;46.62
61554;BME280;47425;51.976;5.326;2024-03-02T01:49:21;99769.56;;;16.02;46.47
61554;BME280;47425;51.976;5.326;2024-03-02T01:51:48;99778.41;;;16.01;46.61
61554;BME280;47425;51.976;5.326;2024-03-02T01:54:14;99783.78;;;16.00;46.85
61554;BME280;47425;51.976;5.326;2024-03-02T01:56:41;99776.91;;;15.97;46.35
61554;BME280;47425;51.976;5.326;2024-03-02T01:59:07;99762.09;;;15.94;46.73
61554;BME280;47425;51.976;5.326;2024-03-02T02:01:35;99769.16;;;15.94;46.75
61554;BME280;47425;51.976;5.326;2024-03-02T02:04:01;99781.50;;;15.93;46.96
61554;BME280;47425;51.976;5.326;2024-03-02T02:06:29;99781.31;;;15.97;46.84
61554;BME280;47425;51.976;5.326;2024-03-02T02:08:56;99776.91;;;15.97;46.76
61554;BME280;47425;51.976;5.326;2024-03-02T02:11:22;99778.84;;;15.93;47.04
61554;BME280;47425;51.976;5.326;2024-03-02T02:13:50;99781.41;;;15.95;46.73
61554;BME280;47425;51.976;5.326;2024-03-02T02:16:16;99780.47;;;15.96;46.86
61554;BME280;47425;51.976;5.326;2024-03-02T02:18:43;99765.84;;;15.90;46.97
61554;BME280;47425;51.976;5.326;2024-03-02T02:21:10;99781.78;;;15.89;46.89
61554;BME280;47425;51.976;5.326;2024-03-02T02:23:37;99766.97;;;15.86;47.17
61554;BME280;47425;51.976;5.326;2024-03-02T02:26:04;99772.16;;;15.88;47.18
61554;BME280;47425;51.976;5.326;2024-03-02T02:28:30;99770.25;;;15.90;47.09
61554;BME280;47425;51.976;5.326;2024-03-02T02:30:57;99778.13;;;15.91;47.16
61554;BME280;47425;51.976;5.326;2024-03-02T02:33:25;99784.34;;;15.90;47.04
61554;BME280;47425;51.976;5.326;2024-03-02T02:35:51;99778.03;;;15.93;47.17
61554;BME280;47425;51.976;5.326;2024-03-02T02:38:18;99767.91;;;15.85;47.08
61554;BME280;47425;51.976;5.326;2024-03-02T02:40:47;99778.28;;;15.88;47.20
61554;BME280;47425;51.976;5.326;2024-03-02T02:43:14;99772.75;;;15.93;47.09
61554;BME280;47425;51.976;5.326;2024-03-02T02:45:40;99777.09;;;15.94;47.01
61554;BME280;47425;51.976;5.326;2024-03-02T02:48:07;99774.34;;;15.96;47.04
61554;BME280;47425;51.976;5.326;2024-03-02T02:50:33;99779.72;;;15.94;46.95
61554;BME280;47425;51.976;5.326;2024-03-02T02:53:01;99769.81;;;15.98;47.07
61554;BME280;47425;51.976;5.326;2024-03-02T02:55:27;99770.84;;;15.95;47.10
61554;BME280;47425;51.976;5.326;2024-03-02T02:57:55;99776.91;;;15.97;47.13
61554;BME280;47425;51.976;5.326;2024-03-02T03:00:21;99769.81;;;15.98;46.70
61554;BME280;47425;51.976;5.326;2024-03-02T03:02:48;99775.19;;;15.96;47.01
61554;BME280;47425;51.976;5.326;2024-03-02T03:05:16;99776.31;;;15.92;47.07
61554;BME280;47425;51.976;5.326;2024-03-02T03:07:43;99769.22;;;15.92;46.76
61554;BME280;47425;51.976;5.326;2024-03-02T03:10:10;99769.22;;;15.92;46.82
61554;BME280;47425;51.976;5.326;2024-03-02T03:12:35;99770.94;;;15.93;46.82
61554;BME280;47425;51.976;5.326;2024-03-02T03:15:03;99770.69;;;15.98;46.89
61554;BME280;47425;51.976;5.326;2024-03-02T03:17:33;99778.59;;;15.98;46.71
61554;BME280;47425;51.976;5.326;2024-03-02T03:20:00;99769.91;;;15.96;46.98
61554;BME280;47425;51.976;5.326;2024-03-02T03:22:27;99777.81;;;15.96;46.56
61554;BME280;47425;51.976;5.326;2024-03-02T03:24:54;99777.16;;;15.92;46.72
61554;BME280;47425;51.976;5.326;2024-03-02T03:27:20;99783.47;;;15.90;46.93
61554;BME280;47425;51.976;5.326;2024-03-02T03:29:48;99783.31;;;15.93;46.85
61554;BME280;47425;51.976;5.326;2024-03-02T03:32:16;99789.41;;;15.93;46.75
61554;BME280;47425;51.976;5.326;2024-03-02T03:34:43;99790.28;;;15.94;46.86
61554;BME280;47425;51.976;5.326;2024-03-02T03:37:09;99787.66;;;15.94;46.73
61554;BME280;47425;51.976;5.326;2024-03-02T03:39:35;99791.22;;;15.93;46.73
61554;BME280;47425;51.976;5.326;2024-03-02T03:42:03;99793.78;;;15.94;46.99
61554;BME280;47425;51.976;5.326;2024-03-02T03:44:30;99796.50;;;15.93;46.74
61554;BME280;47425;51.976;5.326;2024-03-02T03:46:56;99799.16;;;15.93;46.81
61554;BME280;47425;51.976;5.326;2024-03-02T03:49:24;99791.97;;;15.95;46.66
61554;BME280;47425;51.976;5.326;2024-03-02T03:51:50;99787.56;;;15.96;46.92
61554;BME280;47425;51.976;5.326;2024-03-02T03:54:18;99788.38;;;15.96;46.72
61554;BME280;47425;51.976;5.326;2024-03-02T03:56:44;99787.56;;;15.96;46.67
61554;BME280;47425;51.976;5.326;2024-03-02T03:59:11;99789.16;;;15.98;46.51
61554;BME280;47425;51.976;5.326;2024-03-02T04:01:38;99791.13;;;15.94;46.51
61554;BME280;47425;51.976;5.326;2024-03-02T04:04:04;99793.09;;;15.91;47.04
61554;BME280;47425;51.976;5.326;2024-03-02T04:06:32;99801.69;;;15.94;46.66
61554;BME280;47425;51.976;5.326;2024-03-02T04:08:59;99805.16;;;15.95;46.81
61554;BME280;47425;51.976;5.326;2024-03-02T04:11:25;99807.06;;;15.93;46.68
61554;BME280;47425;51.976;5.326;2024-03-02T04:13:51;99804.53;;;15.91;46.61
61554;BME280;47425;51.976;5.326;2024-03-02T04:16:18;99808.09;;;15.90;46.71
61554;BME280;47425;51.976;5.326;2024-03-02T04:18:44;99805.34;;;15.92;46.68
61554;BME280;47425;51.976;5.326;2024-03-02T04:21:11;99801.88;;;15.91;46.80
61554;BME280;47425;51.976;5.326;2024-03-02T04:23:38;99799.97;;;15.93;46.79
61554;BME280;47425;51.976;5.326;2024-03-02T04:26:05;99799.88;;;15.95;46.98
61554;BME280;47425;51.976;5.326;2024-03-02T04:28:31;99805.00;;;15.98;46.76
61554;BME280;47425;51.976;5.326;2024-03-02T04:30:58;99799.88;;;15.95;47.02
61554;BME280;47425;51.976;5.326;2024-03-02T04:33:25;99806.78;;;15.98;46.70
61554;BME280;47425;51.976;5.326;2024-03-02T04:35:52;99813.66;;;16.00;46.90
61554;BME280;47425;51.976;5.326;2024-03-02T04:38:18;99814.53;;;16.01;46.64
61554;BME280;47425;51.976;5.326;2024-03-02T04:40:46;99815.56;;;15.98;46.89
61554;BME280;47425;51.976;5.326;2024-03-02T04:43:13;99814.78;;;15.96;46.65
61554;BME280;47425;51.976;5.326;2024-03-02T04:45:42;99818.56;;;15.92;46.94
61554;BME280;47425;51.976;5.326;2024-03-02T04:48:09;99818.47;;;15.93;46.76
61554;BME280;47425;51.976;5.326;2024-03-02T04:50:35;99821.88;;;15.96;46.73
61554;BME280;47425;51.976;5.326;2024-03-02T04:53:02;99819.25;;;15.96;46.99
61554;BME280;47425;51.976;5.326;2024-03-02T04:55:28;99826.97;;;15.99;46.96
61554;BME280;47425;51.976;5.326;2024-03-02T04:58:31;99827.16;;;15.96;46.79
61554;BME280;47425;51.976;5.326;2024-03-02T05:00:58;99835.19;;;15.94;46.74
61554;BME280;47425;51.976;5.326;2024-03-02T05:03:24;99840.47;;;15.94;46.58
61554;BME280;47425;51.976;5.326;2024-03-02T05:05:50;99840.63;;;15.91;46.94
61554;BME280;47425;51.976;5.326;2024-03-02T05:08:17;99845.81;;;15.92;47.10
61554;BME280;47425;51.976;5.326;2024-03-02T05:10:45;99843.09;;;15.94;47.01
61554;BME280;47425;51.976;5.326;2024-03-02T05:13:11;99846.38;;;15.98;46.63
61554;BME280;47425;51.976;5.326;2024-03-02T05:15:38;99845.44;;;15.99;46.77
61554;BME280;47425;51.976;5.326;2024-03-02T05:18:05;99847.25;;;15.98;46.54
61554;BME280;47425;51.976;5.326;2024-03-02T05:20:32;99855.25;;;15.97;46.73
61554;BME280;47425;51.976;5.326;2024-03-02T05:22:59;99855.34;;;15.95;46.99
61554;BME280;47425;51.976;5.326;2024-03-02T05:25:26;99854.50;;;15.94;46.99
61554;BME280;47425;51.976;5.326;2024-03-02T05:27:52;99855.34;;;15.95;47.06
61554;BME280;47425;51.976;5.326;2024-03-02T05:30:19;99854.31;;;15.98;46.87
61554;BME280;47425;51.976;5.326;2024-03-02T05:32:46;99852.53;;;15.98;46.77
61554;BME280;47425;51.976;5.326;2024-03-02T05:35:14;99847.59;;;15.92;47.03
61554;BME280;47425;51.976;5.326;2024-03-02T05:37:41;99853.72;;;15.92;46.86
61554;BME280;47425;51.976;5.326;2024-03-02T05:40:07;99849.47;;;15.90;46.71
61554;BME280;47425;51.976;5.326;2024-03-02T05:42:36;99847.78;;;15.89;46.87
61554;BME280;47425;51.976;5.326;2024-03-02T05:45:04;99851.19;;;15.91;47.09
61554;BME280;47425;51.976;5.326;2024-03-02T05:47:31;99860.03;;;15.90;47.00
61554;BME280;47425;51.976;5.326;2024-03-02T05:49:59;99862.66;;;15.90;46.78
61554;BME280;47425;51.976;5.326;2024-03-02T05:52:26;99868.72;;;15.92;46.79
61554;BME280;47425;51.976;5.326;2024-03-02T05:54:53;99867.78;;;15.93;46.96
61554;BME280;47425;51.976;5.326;2024-03-02T05:57:19;99867.69;;;15.94;46.83
61554;BME280;47425;51.976;5.326;2024-03-02T05:59:59;99867.50;;;15.98;46.97
61554;BME280;47425;51.976;5.326;2024-03-02T06:02:26;99874.59;;;15.97;46.51
61554;BME280;47425;51.976;5.326;2024-03-02T06:04:54;99869.56;;;15.92;46.89
61554;BME280;47425;51.976;5.326;2024-03-02T06:07:22;99867.88;;;15.91;46.65
61554;BME280;47425;51.976;5.326;2024-03-02T06:09:50;99873.06;;;15.93;46.78
61554;BME280;47425;51.976;5.326;2024-03-02T06:12:17;99879.28;;;15.92;46.80
61554;BME280;47425;51.976;5.326;2024-03-02T06:14:44;99879.19;;;15.93;46.75
61554;BME280;47425;51.976;5.326;2024-03-02T06:17:10;99889.00;;;15.91;46.83
61554;BME280;47425;51.976;5.326;2024-03-02T06:19:37;99889.84;;;15.92;47.03
61554;BME280;47425;51.976;5.326;2024-03-02T06:22:03;99896.16;;;15.89;47.19
61554;BME280;47425;51.976;5.326;2024-03-02T06:24:33;99902.97;;;15.93;47.01
61554;BME280;47425;51.976;5.326;2024-03-02T06:26:59;99901.34;;;15.91;46.64
61554;BME280;47425;51.976;5.326;2024-03-02T06:29:26;99901.53;;;15.88;46.73
61554;BME280;47425;51.976;5.326;2024-03-02T06:31:51;99904.59;;;15.80;46.75
61554;BME280;47425;51.976;5.326;2024-03-02T06:34:18;99914.28;;;15.80;47.08
61554;BME280;47425;51.976;5.326;2024-03-02T06:36:46;99914.22;;;15.81;46.84
61554;BME280;47425;51.976;5.326;2024-03-02T06:39:12;99907.84;;;15.85;47.01
61554;BME280;47425;51.976;5.326;2024-03-02T06:41:40;99907.75;;;15.87;46.98
61554;BME280;47425;51.976;5.326;2024-03-02T06:44:07;99905.09;;;15.87;46.67
61554;BME280;47425;51.976;5.326;2024-03-02T06:46:34;99910.38;;;15.87;46.82
61554;BME280;47425;51.976;5.326;2024-03-02T06:49:00;99908.34;;;15.92;46.89
61554;BME280;47425;51.976;5.326;2024-03-02T06:51:31;99907.22;;;15.96;46.65
61554;BME280;47425;51.976;5.326;2024-03-02T06:53:57;99910.78;;;15.95;46.64
61554;BME280;47425;51.976;5.326;2024-03-02T06:56:23;99914.88;;;16.01;46.47
61554;BME280;47425;51.976;5.326;2024-03-02T06:58:52;99902.44;;;16.03;46.61
61554;BME280;47425;51.976;5.326;2024-03-02T07:01:19;99904.13;;;16.04;46.35
61554;BME280;47425;51.976;5.326;2024-03-02T07:03:46;99911.03;;;16.06;46.61
61554;BME280;47425;51.976;5.326;2024-03-02T07:06:12;99912.16;;;16.02;46.44
61554;BME280;47425;51.976;5.326;2024-03-02T07:08:38;99912.06;;;16.04;46.62
61554;BME280;47425;51.976;5.326;2024-03-02T07:11:05;99910.94;;;16.08;46.23
61554;BME280;47425;51.976;5.326;2024-03-02T07:13:32;99914.31;;;16.10;46.41
61554;BME280;47425;51.976;5.326;2024-03-02T07:16:00;99912.47;;;16.12;46.47
61554;BME280;47425;51.976;5.326;2024-03-02T07:18:52;99919.34;;;16.15;46.32
61554;BME280;47425;51.976;5.326;2024-03-02T07:21:20;99922.09;;;16.13;46.24
61554;BME280;47425;51.976;5.326;2024-03-02T07:23:47;99936.03;;;16.15;46.14
61554;BME280;47425;51.976;5.326;2024-03-02T07:26:13;99929.25;;;16.11;46.29
61554;BME280;47425;51.976;5.326;2024-03-02T07:28:42;99930.00;;;16.13;46.29
61554;BME280;47425;51.976;5.326;2024-03-02T07:31:11;99932.38;;;16.18;46.22
61554;BME280;47425;51.976;5.326;2024-03-02T07:33:37;99932.28;;;16.19;45.95
61554;BME280;47425;51.976;5.326;2024-03-02T07:36:07;99939.38;;;16.19;46.06
61554;BME280;47425;51.976;5.326;2024-03-02T07:38:34;99949.25;;;16.15;45.81
61554;BME280;47425;51.976;5.326;2024-03-02T07:41:01;99952.16;;;16.10;46.22
61554;BME280;47425;51.976;5.326;2024-03-02T07:43:29;99944.34;;;16.09;46.13
61554;BME280;47425;51.976;5.326;2024-03-02T07:45:56;99947.81;;;16.09;46.19
61554;BME280;47425;51.976;5.326;2024-03-02T07:48:29;99960.19;;;16.09;46.11
61554;BME280;47425;51.976;5.326;2024-03-02T07:50:57;99944.34;;;16.09;46.36
61554;BME280;47425;51.976;5.326;2024-03-02T07:53:23;99944.34;;;16.09;46.09
61554;BME280;47425;51.976;5.326;2024-03-02T07:55:51;99945.28;;;16.08;46.21
61554;BME280;47425;51.976;5.326;2024-03-02T07:58:17;99941.03;;;16.05;46.27
61554;BME280;47425;51.976;5.326;2024-03-02T08:00:45;99947.31;;;16.03;45.83
61554;BME280;47425;51.976;5.326;2024-03-02T08:03:11;99950.16;;;16.00;46.02
61554;BME280;47425;51.976;5.326;2024-03-02T08:05:40;99951.88;;;16.01;46.14
61554;BME280;47425;51.976;5.326;2024-03-02T08:08:07;99960.63;;;16.01;46.35
61554;BME280;47425;51.976;5.326;2024-03-02T08:10:33;99958.72;;;16.03;46.01
61554;BME280;47425;51.976;5.326;2024-03-02T08:12:59;99955.94;;;16.06;46.26
61554;BME280;47425;51.976;5.326;2024-03-02T08:15:26;99954.13;;;16.07;46.42
61554;BME280;47425;51.976;5.326;2024-03-02T08:17:54;99964.97;;;16.02;47.07
61554;BME280;47425;51.976;5.326;2024-03-02T08:20:21;99965.72;;;16.04;47.25
61554;BME280;47425;51.976;5.326;2024-03-02T08:22:49;99958.81;;;16.02;48.30
61554;BME280;47425;51.976;5.326;2024-03-02T08:25:16;99963.94;;;16.05;48.28
61554;BME280;47425;51.976;5.326;2024-03-02T08:27:44;99962.97;;;16.06;48.56
61554;BME280;47425;51.976;5.326;2024-03-02T08:30:14;99959.22;;;16.10;49.09
61554;BME280;47425;51.976;5.326;2024-03-02T08:32:40;99959.31;;;16.08;48.82
61554;BME280;47425;51.976;5.326;2024-03-02T08:35:07;99960.84;;;16.13;48.58
61554;BME280;47425;51.976;5.326;2024-03-02T08:37:33;99949.16;;;16.17;48.91
61554;BME280;47425;51.976;5.326;2024-03-02T08:40:01;99956.94;;;16.20;48.58
61554;BME280;47425;51.976;5.326;2024-03-02T08:42:29;99955.91;;;16.22;48.71
61554;BME280;47425;51.976;5.326;2024-03-02T08:44:55;99953.16;;;16.24;48.76
61554;BME280;47425;51.976;5.326;2024-03-02T08:47:22;99955.03;;;16.22;48.83
61554;BME280;47425;51.976;5.326;2024-03-02T08:49:48;99952.28;;;16.23;48.93
61554;BME280;47425;51.976;5.326;2024-03-02T08:52:14;99950.53;;;16.24;48.95
61554;BME280;47425;51.976;5.326;2024-03-02T08:54:41;99957.31;;;16.28;48.88
61554;BME280;47425;51.976;5.326;2024-03-02T08:57:10;99956.50;;;16.27;48.95
61554;BME280;47425;51.976;5.326;2024-03-02T08:59:36;99966.88;;;16.31;48.92
61554;BME280;47425;51.976;5.326;2024-03-02T09:02:03;99966.78;;;16.32;48.18
61554;BME280;47425;51.976;5.326;2024-03-02T09:04:30;99972.41;;;16.26;48.50
61554;BME280;47425;51.976;5.326;2024-03-02T09:06:56;99973.53;;;16.22;48.71
61554;BME280;47425;51.976;5.326;2024-03-02T09:09:24;99971.91;;;16.19;48.77
61554;BME280;47425;51.976;5.326;2024-03-02T09:11:51;99970.63;;;16.26;48.47
61554;BME280;47425;51.976;5.326;2024-03-02T09:14:21;99967.81;;;16.30;48.67
61554;BME280;47425;51.976;5.326;2024-03-02T09:16:48;99968.72;;;16.28;48.50
61554;BME280;47425;51.976;5.326;2024-03-02T09:19:15;99969.75;;;16.26;48.73
61554;BME280;47425;51.976;5.326;2024-03-02T09:21:42;99968.72;;;16.28;48.66
61554;BME280;47425;51.976;5.326;2024-03-02T09:24:09;99965.16;;;16.30;48.52
61554;BME280;47425;51.976;5.326;2024-03-02T09:26:36;99960.91;;;16.27;48.56
61554;BME280;47425;51.976;5.326;2024-03-02T09:29:02;99963.34;;;16.30;48.47
61554;BME280;47425;51.976;5.326;2024-03-02T09:31:30;99966.97;;;16.29;48.59
61554;BME280;47425;51.976;5.326;2024-03-02T09:33:58;99960.47;;;16.35;48.18
61554;BME280;47425;51.976;5.326;2024-03-02T09:36:24;99964.53;;;16.40;48.38
61554;BME280;47425;51.976;5.326;2024-03-02T09:38:51;99962.72;;;16.41;47.81
61554;BME280;47425;51.976;5.326;2024-03-02T09:41:17;99967.16;;;16.40;48.15
61554;BME280;47425;51.976;5.326;2024-03-02T09:43:44;99966.22;;;16.41;48.23
61554;BME280;47425;51.976;5.326;2024-03-02T09:46:12;99970.75;;;16.39;47.98
61554;BME280;47425;51.976;5.326;2024-03-02T09:48:40;99968.78;;;16.43;47.81
61554;BME280;47425;51.976;5.326;2024-03-02T09:51:06;99967.94;;;16.42;47.28
61554;BME280;47425;51.976;5.326;2024-03-02T09:53:33;99972.53;;;16.39;47.84
61554;BME280;47425;51.976;5.326;2024-03-02T09:56:00;99975.09;;;16.40;47.83
61554;BME280;47425;51.976;5.326;2024-03-02T09:58:28;99976.81;;;16.41;47.96
61554;BME280;47425;51.976;5.326;2024-03-02T10:00:54;99963.31;;;16.46;47.70
61554;BME280;47425;51.976;5.326;2024-03-02T10:03:21;99970.50;;;16.44;47.62
61554;BME280;47425;51.976;5.326;2024-03-02T10:05:50;99970.31;;;16.47;47.54
61554;BME280;47425;51.976;5.326;2024-03-02T10:08:17;99967.47;;;16.50;47.21
61554;BME280;47425;51.976;5.326;2024-03-02T10:10:45;99972.00;;;16.48;47.28
61554;BME280;47425;51.976;5.326;2024-03-02T10:13:13;99970.03;;;16.52;47.06
61554;BME280;47425;51.976;5.326;2024-03-02T10:15:40;99971.72;;;16.53;46.73
61554;BME280;47425;51.976;5.326;2024-03-02T10:18:08;99977.88;;;16.53;46.45
61554;BME280;47425;51.976;5.326;2024-03-02T10:20:34;99974.94;;;16.58;46.74
61554;BME280;47425;51.976;5.326;2024-03-02T10:23:13;99972.97;;;16.61;46.40
61554;BME280;47425;51.976;5.326;2024-03-02T10:25:43;99974.50;;;16.66;46.34
61554;BME280;47425;51.976;5.326;2024-03-02T10:28:10;99968.63;;;16.60;45.98
61554;BME280;47425;51.976;5.326;2024-03-02T10:30:36;99969.66;;;16.58;46.20
61554;BME280;47425;51.976;5.326;2024-03-02T10:33:03;99964.38;;;16.58;46.11
61554;BME280;47425;51.976;5.326;2024-03-02T10:35:29;99955.59;;;16.57;45.99
61554;BME280;47425;51.976;5.326;2024-03-02T10:37:58;99956.34;;;16.59;45.78
61554;BME280;47425;51.976;5.326;2024-03-02T10:40:26;99947.28;;;16.64;45.87
61554;BME280;47425;51.976;5.326;2024-03-02T10:42:53;99953.16;;;16.69;45.64
61554;BME280;47425;51.976;5.326;2024-03-02T10:45:20;99941.56;;;16.71;45.67
61554;BME280;47425;51.976;5.326;2024-03-02T10:47:47;99944.00;;;16.74;45.35
61554;BME280;47425;51.976;5.326;2024-03-02T10:50:15;99939.69;;;16.73;45.41
61554;BME280;47425;51.976;5.326;2024-03-02T10:52:42;99933.41;;;16.74;45.11
61554;BME280;47425;51.976;5.326;2024-03-02T10:55:09;99940.50;;;16.74;45.32
61554;BME280;47425;51.976;5.326;2024-03-02T10:57:40;99940.50;;;16.74;45.27
61554;BME280;47425;51.976;5.326;2024-03-02T11:00:07;99932.69;;;16.72;45.21
61554;BME280;47425;51.976;5.326;2024-03-02T11:02:46;99936.56;;;16.67;45.12
61554;BME280;47425;51.976;5.326;2024-03-02T11:05:18;99943.63;;;16.66;45.26
61554;BME280;47425;51.976;5.326;2024-03-02T11:07:47;99943.50;;;16.68;44.84
61554;BME280;47425;51.976;5.326;2024-03-02T11:10:14;99941.66;;;16.70;44.70
61554;BME280;47425;51.976;5.326;2024-03-02T11:12:44;99938.72;;;16.74;44.72
61554;BME280;47425;51.976;5.326;2024-03-02T11:15:17;99944.28;;;16.70;44.76
61554;BME280;47425;51.976;5.326;2024-03-02T11:17:44;99950.41;;;16.70;44.67
61554;BME280;47425;51.976;5.326;2024-03-02T11:20:11;99939.69;;;16.73;44.51
61554;BME280;47425;51.976;5.326;2024-03-02T11:22:37;99932.22;;;16.80;44.30
61554;BME280;47425;51.976;5.326;2024-03-02T11:25:04;99935.81;;;16.79;44.30
61554;BME280;47425;51.976;5.326;2024-03-02T11:33:10;99926.84;;;16.82;44.10
61554;BME280;47425;51.976;5.326;2024-03-02T11:35:37;99928.44;;;16.84;43.96
61554;BME280;47425;51.976;5.326;2024-03-02T11:38:04;99928.44;;;16.84;43.95
61554;BME280;47425;51.976;5.326;2024-03-02T11:40:30;99918.22;;;16.78;44.02
61554;BME280;47425;51.976;5.326;2024-03-02T11:42:57;99929.56;;;16.80;44.13
61554;BME280;47425;51.976;5.326;2024-03-02T11:45:25;99924.38;;;16.78;43.99
61554;BME280;47425;51.976;5.326;2024-03-02T11:47:52;99924.94;;;16.84;43.66
61554;BME280;47425;51.976;5.326;2024-03-02T11:50:29;99924.75;;;16.87;43.59
61554;BME280;47425;51.976;5.326;2024-03-02T11:53:16;99920.16;;;16.90;43.48
61554;BME280;47425;51.976;5.326;2024-03-02T11:55:44;99915.72;;;16.91;43.44
61554;BME280;47425;51.976;5.326;2024-03-02T11:58:12;99918.94;;;16.96;43.50
61554;BME280;47425;51.976;5.326;2024-03-02T12:00:38;99916.38;;;16.94;43.24
61554;BME280;47425;51.976;5.326;2024-03-02T12:03:05;99908.53;;;16.93;43.34
61554;BME280;47425;51.976;5.326;2024-03-02T12:05:36;99901.69;;;16.89;43.27
61554;BME280;47425;51.976;5.326;2024-03-02T12:08:02;99906.25;;;16.87;43.46
61554;BME280;47425;51.976;5.326;2024-03-02T12:10:29;99901.63;;;16.90;43.34
61554;BME280;47425;51.976;5.326;2024-03-02T12:12:56;99900.88;;;16.88;43.19
61554;BME280;47425;51.976;5.326;2024-03-02T12:15:24;99894.72;;;16.88;43.11
61554;BME280;47425;51.976;5.326;2024-03-02T12:17:55;99892.50;;;16.96;43.31
61554;BME280;47425;51.976;5.326;2024-03-02T12:20:22;99888.41;;;17.05;42.97
61554;BME280;47425;51.976;5.326;2024-03-02T12:22:50;99887.38;;;17.07;42.83
61554;BME280;47425;51.976;5.326;2024-03-02T12:25:17;99875.84;;;17.08;42.88
61554;BME280;47425;51.976;5.326;2024-03-02T12:27:44;99875.63;;;17.11;42.61
61554;BME280;47425;51.976;5.326;2024-03-02T12:30:11;99874.81;;;17.11;42.50
61554;BME280;47425;51.976;5.326;2024-03-02T12:32:40;99877.34;;;17.13;42.52
61554;BME280;47425;51.976;5.326;2024-03-02T12:35:07;99868.47;;;17.14;42.24
61554;BME280;47425;51.976;5.326;2024-03-02T12:37:41;99857.34;;;17.08;42.04
61554;BME280;47425;51.976;5.326;2024-03-02T12:40:10;99868.75;;;17.09;42.80
61554;BME280;47425;51.976;5.326;2024-03-02T12:42:37;99858.94;;;17.11;42.63
61554;BME280;47425;51.976;5.326;2024-03-02T12:45:05;99855.16;;;17.15;42.75
61554;BME280;47425;51.976;5.326;2024-03-02T12:47:31;99853.53;;;17.13;42.64
61554;BME280;47425;51.976;5.326;2024-03-02T12:49:58;99847.31;;;17.14;42.58
61554;BME280;47425;51.976;5.326;2024-03-02T12:52:24;99850.34;;;17.07;42.54
61554;BME280;47425;51.976;5.326;2024-03-02T12:54:51;99845.72;;;17.11;42.54
61554;BME280;47425;51.976;5.326;2024-03-02T12:57:20;99848.59;;;17.21;42.42
61554;BME280;47425;51.976;5.326;2024-03-02T12:59:47;99839.72;;;17.22;42.33
61554;BME280;47425;51.976;5.326;2024-03-02T13:02:16;99829.25;;;17.20;42.27
61554;BME280;47425;51.976;5.326;2024-03-02T13:04:43;99837.19;;;17.20;42.34
61554;BME280;47425;51.976;5.326;2024-03-02T13:07:11;99837.19;;;17.20;42.23